Time;durP1;ratioP1;P1;durP2;ratioP2;P2;SDS_P1;SDS_P2;PMS_P1;PMS_P2;Temp;Humidity;BMP_temperature;BMP_pressure;BME280_temperature;BME280_humidity;BME280_pressure;Samples;Min_cycle;Max_cycle;Signal;HPM_P1;HPM_P2
2023/05/05 00:01:19;;;;;;;1.45;1.00;;;22.00;37.80;;;;;;6029113;29;20480;-73
2023/05/05 00:04:29;;;;;;;1.55;0.82;;;21.90;37.90;;;;;;6027616;29;20038;-72
2023/05/05 00:07:38;;;;;;;1.20;0.73;;;21.90;38.10;;;;;;6028786;29;20037;-72
2023/05/05 00:10:54;;;;;;;1.85;0.98;;;21.80;38.40;;;;;;6027349;29;20084;-70
2023/05/05 00:14:02;;;;;;;2.13;1.00;;;21.80;38.80;;;;;;6028767;29;20037;-71
2023/05/05 00:17:12;;;;;;;1.30;0.90;;;21.70;39.10;;;;;;6028465;29;20041;-71
2023/05/05 00:20:26;;;;;;;1.60;0.90;;;21.60;39.50;;;;;;6026837;29;20108;-71
2023/05/05 00:23:51;;;;;;;1.65;1.00;;;21.50;39.60;;;;;;6026622;29;20037;-71
2023/05/05 00:27:02;;;;;;;2.25;1.00;;;21.50;39.90;;;;;;6028135;29;20037;-73
2023/05/05 00:30:17;;;;;;;1.98;0.98;;;21.40;40.00;;;;;;6012200;29;20113;-71
2023/05/05 00:33:32;;;;;;;2.65;1.00;;;21.40;40.20;;;;;;6019282;29;20045;-70
2023/05/05 00:36:42;;;;;;;2.95;1.27;;;21.30;40.40;;;;;;6004233;29;20371;-72
2023/05/05 00:39:52;;;;;;;4.28;1.13;;;21.20;40.50;;;;;;6005068;29;20038;-73
2023/05/05 00:43:01;;;;;;;2.35;1.15;;;21.20;40.70;;;;;;5988586;29;20586;-72
2023/05/05 00:46:30;;;;;;;2.58;1.05;;;21.20;40.90;;;;;;6005267;29;20072;-71
2023/05/05 00:49:37;;;;;;;2.92;1.05;;;21.10;41.00;;;;;;6003380;29;20120;-70
2023/05/05 00:52:42;;;;;;;3.45;1.10;;;21.10;41.10;;;;;;6031712;29;20133;-72
2023/05/05 00:55:57;;;;;;;2.17;1.10;;;21.10;41.40;;;;;;6033049;29;20064;-72
2023/05/05 00:59:03;;;;;;;2.80;1.27;;;21.00;41.50;;;;;;6028029;29;20104;-73
2023/05/05 01:02:17;;;;;;;7.03;1.23;;;21.00;41.60;;;;;;6028639;29;20081;-71
2023/05/05 01:05:37;;;;;;;1.42;1.05;;;20.90;41.80;;;;;;6030571;29;20041;-71
2023/05/05 01:09:18;;;;;;;6.35;1.83;;;20.90;42.00;;;;;;6029635;29;20040;-71
2023/05/05 01:13:03;;;;;;;1.70;1.20;;;20.90;42.20;;;;;;6021570;29;20053;-70
2023/05/05 01:16:18;;;;;;;2.63;1.23;;;20.80;42.40;;;;;;6028016;29;20085;-71
2023/05/05 01:19:52;;;;;;;2.17;1.38;;;20.80;42.50;;;;;;6025759;29;20100;-71
2023/05/05 01:23:05;;;;;;;2.22;1.20;;;20.70;42.60;;;;;;6025768;29;20236;-71
2023/05/05 01:26:44;;;;;;;5.75;1.10;;;20.70;42.70;;;;;;6027151;29;20064;-71
2023/05/05 01:30:20;;;;;;;1.75;1.00;;;20.60;42.80;;;;;;6026912;29;20396;-71
2023/05/05 01:33:56;;;;;;;5.10;1.40;;;20.60;42.80;;;;;;6014436;29;20067;-72
2023/05/05 01:37:19;;;;;;;3.70;1.10;;;20.60;43.00;;;;;;6003643;29;20048;-71
2023/05/05 01:40:31;;;;;;;1.77;0.93;;;20.50;43.00;;;;;;6017655;29;20025;-71
2023/05/05 01:43:40;;;;;;;4.68;1.33;;;20.50;43.10;;;;;;6002346;29;20182;-72
2023/05/05 01:46:51;;;;;;;2.53;1.30;;;20.50;43.10;;;;;;6002561;29;20049;-70
2023/05/05 01:50:02;;;;;;;7.05;0.95;;;20.50;43.20;;;;;;6017084;29;20098;-72
2023/05/05 01:53:13;;;;;;;1.95;0.90;;;20.40;43.20;;;;;;6037612;29;20053;-72
2023/05/05 01:56:25;;;;;;;4.10;1.25;;;20.40;43.20;;;;;;6049907;29;20092;-71
2023/05/05 01:59:36;;;;;;;3.05;1.02;;;20.40;43.20;;;;;;6048191;29;20059;-71
2023/05/05 02:02:47;;;;;;;1.70;1.20;;;20.40;43.20;;;;;;6049846;29;20036;-71
2023/05/05 02:05:57;;;;;;;2.63;1.05;;;20.40;43.20;;;;;;6047964;29;20037;-71
2023/05/05 02:09:05;;;;;;;1.88;1.20;;;20.40;43.60;;;;;;6001997;29;20041;-72
2023/05/05 02:12:18;;;;;;;1.65;1.23;;;20.30;43.70;;;;;;6017305;29;20037;-71
2023/05/05 02:15:32;;;;;;;1.85;1.33;;;20.30;43.80;;;;;;6017164;29;20038;-72
2023/05/05 02:18:42;;;;;;;5.85;1.20;;;20.30;44.80;;;;;;6013499;29;20030;-71
2023/05/05 02:21:50;;;;;;;1.95;1.10;;;20.30;44.60;;;;;;6024741;29;20214;-71
2023/05/05 02:24:59;;;;;;;3.38;1.58;;;20.20;44.70;;;;;;6024690;29;20124;-71
2023/05/05 02:28:12;;;;;;;2.83;1.20;;;20.20;44.80;;;;;;6024752;29;20154;-73
2023/05/05 02:31:20;;;;;;;2.17;1.10;;;20.10;44.80;;;;;;6026572;29;20127;-72
2023/05/05 02:34:36;;;;;;;5.88;1.40;;;20.10;44.80;;;;;;6006018;29;20482;-71
2023/05/05 02:37:53;;;;;;;6.65;1.30;;;20.10;44.80;;;;;;6003264;29;20065;-71
2023/05/05 02:41:12;;;;;;;5.95;1.20;;;20.00;44.90;;;;;;6001655;29;20180;-71
2023/05/05 02:44:22;;;;;;;1.98;1.30;;;20.00;44.90;;;;;;6017057;29;20465;-72
2023/05/05 02:47:40;;;;;;;1.42;0.90;;;20.00;45.00;;;;;;6005970;29;20029;-71
2023/05/05 02:50:51;;;;;;;3.15;1.35;;;19.90;45.10;;;;;;6033067;29;20044;-72
2023/05/05 02:54:13;;;;;;;1.48;1.30;;;19.90;45.30;;;;;;6000296;29;20065;-71
2023/05/05 02:57:45;;;;;;;3.10;1.40;;;19.80;45.50;;;;;;6033279;29;20033;-72
2023/05/05 03:01:37;;;;;;;7.28;1.45;;;19.70;45.70;;;;;;6033800;29;20105;-72
2023/05/05 03:04:55;;;;;;;3.47;1.83;;;19.60;45.90;;;;;;6033590;29;20045;-71
2023/05/05 03:08:22;;;;;;;2.30;1.63;;;19.60;46.40;;;;;;6033505;29;20071;-73
2023/05/05 03:11:39;;;;;;;4.15;1.70;;;19.50;46.50;;;;;;6034028;29;20554;-71
2023/05/05 03:14:56;;;;;;;3.85;1.50;;;19.40;46.80;;;;;;6033854;29;20025;-71
2023/05/05 03:18:22;;;;;;;;;;;19.40;46.70;;;;;;6020277;29;20036;-70
2023/05/05 03:21:37;;;;;;;4.90;1.70;;;19.30;46.70;;;;;;6034171;29;19999;-71
2023/05/05 03:24:53;;;;;;;2.17;1.40;;;19.30;46.70;;;;;;6033304;29;20056;-73
2023/05/05 03:28:04;;;;;;;3.03;1.25;;;19.30;47.00;;;;;;6033374;29;20125;-72
2023/05/05 03:31:14;;;;;;;4.30;1.83;;;19.30;47.20;;;;;;6018286;29;20037;-72
2023/05/05 03:34:29;;;;;;;5.05;1.85;;;19.20;47.20;;;;;;6033862;29;20030;-70
2023/05/05 03:37:47;;;;;;;4.43;2.10;;;19.20;47.30;;;;;;6034022;29;20060;-72
2023/05/05 03:40:58;;;;;;;3.85;1.70;;;19.10;47.20;;;;;;6032268;29;20041;-71
2023/05/05 03:44:18;;;;;;;4.72;1.77;;;19.10;47.30;;;;;;6032819;29;20036;-71
2023/05/05 03:47:29;;;;;;;5.18;2.20;;;19.10;47.40;;;;;;6032222;29;20041;-73
2023/05/05 03:50:40;;;;;;;4.68;2.03;;;19.10;47.50;;;;;;6031965;29;20057;-72
2023/05/05 03:54:02;;;;;;;4.03;2.10;;;19.10;47.60;;;;;;6031606;29;20065;-72
2023/05/05 03:57:12;;;;;;;8.40;2.33;;;19.00;47.70;;;;;;6033983;29;20052;-72
2023/05/05 04:00:27;;;;;;;4.00;1.67;;;19.00;47.70;;;;;;6031524;29;20045;-71
2023/05/05 04:03:39;;;;;;;3.63;1.77;;;19.00;47.80;;;;;;6032362;29;20030;-72
2023/05/05 04:06:54;;;;;;;5.65;2.58;;;19.00;47.90;;;;;;6033289;29;20078;-70
2023/05/05 04:10:15;;;;;;;4.63;2.40;;;19.00;48.00;;;;;;6033208;29;20045;-71
2023/05/05 04:13:28;;;;;;;8.18;2.30;;;18.90;48.00;;;;;;6032422;29;20391;-72
2023/05/05 04:16:36;;;;;;;6.00;1.95;;;19.00;48.10;;;;;;6053481;29;20044;-71
2023/05/05 04:19:53;;;;;;;2.95;2.00;;;18.90;48.10;;;;;;6037265;29;20222;-72
2023/05/05 04:23:21;;;;;;;4.80;2.15;;;18.90;48.30;;;;;;6036916;29;20084;-71
2023/05/05 04:26:32;;;;;;;5.75;2.28;;;18.80;48.40;;;;;;6052019;29;20040;-71
2023/05/05 04:29:38;;;;;;;3.67;2.10;;;18.80;48.60;;;;;;6051971;29;20032;-71
2023/05/05 04:32:56;;;;;;;3.67;1.67;;;18.80;48.60;;;;;;6051849;29;20093;-71
2023/05/05 04:36:03;;;;;;;6.43;2.47;;;18.80;48.60;;;;;;6052194;29;20041;-70
2023/05/05 04:39:14;;;;;;;7.18;2.28;;;18.80;48.70;;;;;;6020978;29;20033;-71
2023/05/05 04:42:30;;;;;;;2.83;1.85;;;18.80;48.70;;;;;;6036098;29;20032;-72
2023/05/05 04:45:42;;;;;;;5.88;2.47;;;18.80;48.80;;;;;;6051882;29;20041;-71
2023/05/05 04:48:56;;;;;;;7.20;2.00;;;18.80;48.90;;;;;;6051366;29;20097;-72
2023/05/05 04:52:13;;;;;;;2.88;2.05;;;18.80;48.90;;;;;;6044354;29;20115;-71
2023/05/05 04:55:28;;;;;;;7.75;2.33;;;18.90;49.00;;;;;;6046468;29;20033;-71
2023/05/05 04:58:51;;;;;;;6.82;2.20;;;18.90;49.00;;;;;;6051411;29;20029;-73
2023/05/05 05:02:02;;;;;;;4.43;2.08;;;18.90;49.30;;;;;;6035886;29;20058;-71
2023/05/05 05:05:28;;;;;;;4.70;2.03;;;18.90;49.60;;;;;;6035161;29;20057;-70
2023/05/05 05:08:42;;;;;;;4.90;2.42;;;18.90;49.80;;;;;;6030628;29;20037;-71
2023/05/05 05:12:02;;;;;;;8.65;2.22;;;18.90;49.80;;;;;;6023676;29;20038;-70
2023/05/05 05:15:22;;;;;;;9.38;2.08;;;18.90;49.90;;;;;;6005633;29;20081;-71
2023/05/05 05:18:33;;;;;;;8.65;2.55;;;18.90;50.60;;;;;;6009485;29;20034;-71
2023/05/05 05:21:39;;;;;;;8.30;2.30;;;19.00;50.00;;;;;;5996549;29;20034;-71
2023/05/05 05:24:53;;;;;;;6.50;2.17;;;18.90;49.80;;;;;;6026012;29;20073;-71
2023/05/05 05:28:11;;;;;;;3.88;2.08;;;19.00;49.90;;;;;;5995827;29;20045;-72
2023/05/05 05:31:27;;;;;;;3.53;1.77;;;19.00;49.90;;;;;;6010606;29;20063;-71
2023/05/05 05:34:51;;;;;;;3.42;2.33;;;19.10;50.00;;;;;;6010446;29;20085;-71
2023/05/05 05:38:05;;;;;;;4.78;1.80;;;19.10;49.90;;;;;;6027978;29;20034;-70
2023/05/05 05:41:29;;;;;;;5.30;1.55;;;19.10;49.80;;;;;;6033334;29;20049;-70
2023/05/05 05:44:42;;;;;;;3.03;1.80;;;19.20;49.80;;;;;;6034733;29;20041;-72
2023/05/05 05:47:58;;;;;;;5.38;2.03;;;19.30;49.60;;;;;;6014019;29;20052;-71
2023/05/05 05:51:06;;;;;;;3.40;2.10;;;19.30;49.40;;;;;;6027931;29;20033;-71
2023/05/05 05:54:12;;;;;;;3.10;1.70;;;19.30;49.30;;;;;;6049983;29;20029;-71
2023/05/05 05:57:26;;;;;;;4.20;1.70;;;19.40;49.30;;;;;;6048166;29;20045;-70
2023/05/05 06:00:33;;;;;;;3.20;1.70;;;19.50;49.00;;;;;;6048209;29;20064;-71
2023/05/05 06:03:51;;;;;;;6.43;1.65;;;19.60;48.80;;;;;;6038242;29;20037;-71
2023/05/05 06:07:03;;;;;;;4.95;1.48;;;19.70;48.70;;;;;;6040901;29;20056;-72
2023/05/05 06:10:12;;;;;;;8.25;1.70;;;19.70;48.50;;;;;;6027040;29;20080;-73
2023/05/05 06:13:25;;;;;;;3.00;1.70;;;19.80;48.40;;;;;;6025446;29;20061;-72
2023/05/05 06:16:34;;;;;;;4.93;2.17;;;19.90;48.30;;;;;;6027019;29;20105;-72
2023/05/05 06:19:52;;;;;;;3.75;1.80;;;19.80;48.20;;;;;;6026580;29;20042;-72
2023/05/05 06:23:03;;;;;;;3.40;1.90;;;19.90;48.20;;;;;;6025208;29;20026;-72
2023/05/05 06:26:14;;;;;;;4.50;1.77;;;19.90;48.20;;;;;;6026678;29;20066;-71
2023/05/05 06:29:28;;;;;;;6.38;2.08;;;19.90;48.10;;;;;;6026341;29;20045;-74
2023/05/05 06:32:34;;;;;;;4.47;1.83;;;20.00;48.00;;;;;;6037763;29;20085;-73
2023/05/05 06:35:44;;;;;;;16.88;2.10;;;20.10;48.00;;;;;;6010121;29;20060;-72
2023/05/05 06:38:58;;;;;;;3.38;1.95;;;20.10;47.90;;;;;;6024718;29;20041;-72
2023/05/05 06:42:06;;;;;;;6.53;2.30;;;20.20;47.80;;;;;;6024877;29;20612;-73
2023/05/05 06:45:30;;;;;;;3.33;1.98;;;20.20;47.70;;;;;;6025271;29;20104;-71
2023/05/05 06:48:36;;;;;;;8.65;1.85;;;20.40;47.60;;;;;;6010271;29;20145;-73
2023/05/05 06:51:53;;;;;;;4.90;2.17;;;20.50;47.30;;;;;;6027082;29;20038;-73
2023/05/05 06:55:03;;;;;;;6.32;2.50;;;20.70;47.00;;;;;;6026269;29;20180;-71
2023/05/05 06:58:16;;;;;;;16.08;2.40;;;20.90;46.70;;;;;;6010054;29;20518;-72
2023/05/05 07:01:31;;;;;;;3.33;2.03;;;21.10;46.30;;;;;;6026171;29;20021;-72
2023/05/05 07:04:44;;;;;;;3.95;1.85;;;21.30;46.00;;;;;;6026188;29;20049;-72
2023/05/05 07:07:57;;;;;;;18.13;2.60;;;21.60;45.60;;;;;;6024794;29;20029;-71
2023/05/05 07:11:05;;;;;;;4.27;2.03;;;21.60;45.30;;;;;;6026446;29;20057;-71
2023/05/05 07:14:17;;;;;;;2.55;1.50;;;21.70;45.10;;;;;;6026271;29;20072;-70
2023/05/05 07:17:31;;;;;;;3.53;2.13;;;21.80;44.70;;;;;;6025729;29;20030;-71
2023/05/05 07:20:37;;;;;;;6.00;1.88;;;21.80;44.40;;;;;;6025772;29;20037;-70
2023/05/05 07:23:46;;;;;;;4.25;2.00;;;21.80;44.40;;;;;;6031978;29;20121;-73
2023/05/05 07:26:58;;;;;;;5.05;2.33;;;21.80;44.30;;;;;;6003028;29;20054;-72
2023/05/05 07:30:04;;;;;;;;;;;21.80;44.20;;;;;;6016551;29;20041;-72
2023/05/05 07:33:23;;;;;;;8.68;1.90;;;21.90;44.10;;;;;;6017206;29;19936;-73
2023/05/05 07:36:31;;;;;;;19.17;2.38;;;21.90;43.90;;;;;;6007940;29;20130;-72
2023/05/05 07:39:36;;;;;;;4.25;2.42;;;22.00;44.00;;;;;;6006938;29;20073;-72
2023/05/05 07:42:41;;;;;;;;;;;22.00;43.80;;;;;;6007885;29;20037;-72
2023/05/05 07:45:53;;;;;;;5.10;1.70;;;22.20;43.70;;;;;;6023991;29;19972;-72
2023/05/05 07:49:03;;;;;;;4.60;1.98;;;22.30;43.20;;;;;;6030269;29;20037;-73
2023/05/05 07:52:12;;;;;;;5.32;2.20;;;22.50;43.00;;;;;;6038943;29;20041;-72
2023/05/05 07:55:18;;;;;;;;;;;22.60;42.70;;;;;;6040952;29;20762;-72
2023/05/05 07:58:29;;;;;;;8.63;1.60;;;22.90;42.30;;;;;;6029660;29;19999;-71
2023/05/05 08:01:37;;;;;;;4.82;1.42;;;23.10;41.80;;;;;;6030024;29;20113;-73
2023/05/05 08:04:49;;;;;;;9.88;2.00;;;23.30;41.30;;;;;;6028222;29;20398;-72
2023/05/05 08:07:56;;;;;;;3.28;1.90;;;23.60;40.80;;;;;;6027939;29;20217;-72
2023/05/05 08:11:07;;;;;;;2.90;1.50;;;23.90;40.20;;;;;;6043379;29;20044;-71
2023/05/05 08:14:15;;;;;;;4.85;1.77;;;24.10;39.40;;;;;;6029643;29;20443;-72
2023/05/05 08:17:29;;;;;;;5.78;1.60;;;24.30;39.00;;;;;;6029245;29;20036;-72
2023/05/05 08:20:34;;;;;;;4.65;1.60;;;24.40;38.50;;;;;;6029710;29;20030;-71
2023/05/05 08:23:46;;;;;;;5.05;1.55;;;24.60;38.10;;;;;;6028330;29;20065;-73
2023/05/05 08:26:58;;;;;;;2.78;1.50;;;24.60;37.80;;;;;;6028820;29;20041;-72
2023/05/05 08:30:10;;;;;;;9.60;1.70;;;24.70;37.90;;;;;;6028490;29;20033;-72
2023/05/05 08:33:19;;;;;;;2.70;1.40;;;24.70;37.50;;;;;;6028602;29;20037;-73
2023/05/05 08:36:29;;;;;;;1.92;1.27;;;24.70;37.50;;;;;;6026987;29;20044;-72
2023/05/05 08:39:38;;;;;;;3.78;1.42;;;24.60;37.50;;;;;;6028475;29;20128;-73
2023/05/05 08:42:53;;;;;;;2.78;1.15;;;24.50;37.30;;;;;;6003921;29;20041;-74
2023/05/05 08:46:07;;;;;;;21.42;1.73;;;24.50;37.40;;;;;;6005581;29;20082;-71
2023/05/05 08:49:20;;;;;;;5.63;1.70;;;24.40;37.40;;;;;;6005513;29;20084;-72
2023/05/05 08:52:33;;;;;;;4.55;1.30;;;24.40;37.60;;;;;;6030402;29;20077;-72
2023/05/05 08:56:01;;;;;;;3.63;1.55;;;24.50;37.60;;;;;;6028524;29;20743;-72
2023/05/05 08:59:17;;;;;;;2.10;1.45;;;24.50;37.50;;;;;;6013195;29;20038;-73
2023/05/05 09:02:27;;;;;;;4.25;1.50;;;24.60;37.30;;;;;;6027114;29;20469;-72
2023/05/05 09:05:32;;;;;;;4.18;1.60;;;24.70;37.20;;;;;;6029089;29;20046;-70
2023/05/05 09:08:41;;;;;;;2.17;1.50;;;24.80;37.00;;;;;;6027439;29;20032;-73
2023/05/05 09:11:58;;;;;;;3.67;1.52;;;24.90;36.80;;;;;;6026534;29;20439;-72
2023/05/05 09:15:13;;;;;;;4.45;1.58;;;25.10;36.80;;;;;;6027979;29;20046;-73
2023/05/05 09:18:29;;;;;;;3.17;1.55;;;25.20;36.70;;;;;;6027825;29;20060;-72
2023/05/05 09:21:53;;;;;;;3.95;1.92;;;25.50;36.40;;;;;;6027712;29;20084;-72
2023/05/05 09:25:04;;;;;;;5.30;1.77;;;25.60;36.10;;;;;;6027283;29;20034;-70
2023/05/05 09:28:20;;;;;;;6.32;1.73;;;25.80;35.60;;;;;;6010412;29;20082;-71
2023/05/05 09:31:35;;;;;;;5.82;1.75;;;25.80;35.90;;;;;;6027933;29;20064;-73
2023/05/05 09:35:02;;;;;;;2.05;1.42;;;25.90;35.30;;;;;;6028980;29;20030;-71
2023/05/05 09:38:20;;;;;;;4.90;1.83;;;26.00;35.20;;;;;;6040549;29;20072;-74
2023/05/05 09:41:58;;;;;;;3.42;1.55;;;26.10;35.00;;;;;;6027117;29;20033;-73
2023/05/05 09:45:29;;;;;;;2.53;1.33;;;26.40;34.80;;;;;;6027134;29;20040;-73
2023/05/05 09:48:34;;;;;;;2.75;1.50;;;26.60;34.40;;;;;;6025557;29;20037;-74
2023/05/05 09:51:51;;;;;;;5.32;1.30;;;26.80;34.10;;;;;;6032878;29;20081;-72
2023/05/05 09:54:57;;;;;;;2.13;1.33;;;26.90;34.00;;;;;;6039055;29;20064;-73
2023/05/05 09:58:27;;;;;;;2.65;1.50;;;27.00;34.00;;;;;;6024794;29;20105;-73
2023/05/05 10:01:31;;;;;;;2.42;1.40;;;27.00;33.90;;;;;;6025485;29;20116;-72
2023/05/05 10:04:39;;;;;;;5.15;1.52;;;27.00;33.70;;;;;;6026201;29;20042;-72
2023/05/05 10:07:53;;;;;;;4.10;1.50;;;27.20;33.70;;;;;;6025229;29;20034;-72
2023/05/05 10:11:05;;;;;;;2.88;1.40;;;27.30;33.30;;;;;;6026528;29;20140;-72
2023/05/05 10:14:16;;;;;;;2.22;1.35;;;27.40;33.10;;;;;;6026947;29;20036;-72
2023/05/05 10:17:32;;;;;;;5.32;2.22;;;27.50;32.70;;;;;;6024989;29;20133;-72
2023/05/05 10:20:40;;;;;;;3.58;1.48;;;27.50;32.50;;;;;;6026684;29;20038;-72
2023/05/05 10:23:58;;;;;;;5.32;1.60;;;27.60;32.50;;;;;;6026828;29;20071;-74
2023/05/05 10:27:18;;;;;;;3.65;1.60;;;27.60;32.50;;;;;;6026981;29;20150;-71
2023/05/05 10:30:32;;;;;;;3.15;1.77;;;27.80;32.70;;;;;;6025069;29;20116;-72
2023/05/05 10:33:50;;;;;;;4.50;1.80;;;27.80;32.70;;;;;;6026879;29;20109;-73
2023/05/05 10:37:03;;;;;;;3.25;1.50;;;27.70;32.90;;;;;;6027048;29;20530;-73
2023/05/05 10:40:10;;;;;;;12.02;2.17;;;27.70;32.90;;;;;;6010099;29;20072;-73
2023/05/05 10:43:17;;;;;;;12.40;1.60;;;27.60;32.80;;;;;;6026732;29;20033;-71
2023/05/05 10:46:27;;;;;;;2.60;1.65;;;27.60;32.60;;;;;;6027199;29;20033;-73
2023/05/05 10:50:00;;;;;;;3.22;1.50;;;27.50;32.40;;;;;;6026473;29;20098;-75
2023/05/05 10:53:51;;;;;;;11.48;2.30;;;27.60;32.00;;;;;;6041313;29;20044;-72
2023/05/05 10:57:04;;;;;;;3.65;1.30;;;28.00;31.40;;;;;;5917980;30;20126;-72
2023/05/05 11:00:41;;;;;;;6.40;1.60;;;28.60;30.60;;;;;;5932602;29;20031;-71
2023/05/05 11:04:12;;;;;;;3.67;1.67;;;29.10;29.50;;;;;;5932042;30;20633;-73
2023/05/05 11:07:26;;;;;;;6.20;2.20;;;29.50;29.00;;;;;;5931965;30;20145;-73
2023/05/05 11:10:47;;;;;;;3.63;1.05;;;29.90;28.70;;;;;;5934855;29;20062;-72
2023/05/05 11:14:22;;;;;;;2.67;1.25;;;30.30;28.10;;;;;;5921945;29;20204;-72
2023/05/05 11:17:59;;;;;;;2.58;1.48;;;30.50;27.20;;;;;;5936300;30;20102;-73
2023/05/05 11:21:24;;;;;;;4.10;1.45;;;30.70;26.90;;;;;;5921665;30;20042;-71
2023/05/05 11:24:32;;;;;;;2.00;1.13;;;30.90;26.80;;;;;;5936320;30;20090;-73
2023/05/05 11:28:12;;;;;;;1.73;1.10;;;31.00;26.50;;;;;;5921485;30;20051;-71
2023/05/05 11:31:25;;;;;;;1.13;0.90;;;31.20;26.50;;;;;;5989199;29;20046;-73
2023/05/05 11:34:32;;;;;;;4.90;1.25;;;31.40;26.10;;;;;;6009530;29;20049;-72
2023/05/05 11:37:37;;;;;;;6.38;1.10;;;31.40;26.00;;;;;;6008418;29;20163;-72
2023/05/05 11:40:47;;;;;;;2.88;0.90;;;31.30;25.80;;;;;;6014616;29;20030;-72
2023/05/05 11:44:22;;;;;;;2.72;1.08;;;31.40;26.00;;;;;;6030103;29;20120;-72
2023/05/05 11:47:32;;;;;;;3.22;1.00;;;31.50;26.10;;;;;;6029200;29;20037;-72
2023/05/05 11:50:37;;;;;;;3.70;0.90;;;31.60;26.00;;;;;;6028410;29;20045;-73
2023/05/05 11:53:52;;;;;;;3.58;0.80;;;31.80;26.00;;;;;;6049432;29;20104;-72
2023/05/05 11:57:07;;;;;;;4.00;1.02;;;31.90;25.90;;;;;;6028026;29;20036;-71
2023/05/05 12:00:12;;;;;;;2.35;0.95;;;32.10;25.80;;;;;;6029617;29;20041;-72
2023/05/05 12:03:28;;;;;;;2.05;0.80;;;32.20;25.70;;;;;;6029725;29;20025;-72
2023/05/05 12:06:34;;;;;;;3.38;0.98;;;32.50;25.60;;;;;;6029390;29;20084;-73
2023/05/05 12:09:46;;;;;;;5.13;1.05;;;32.90;25.20;;;;;;6028785;29;20411;-72
2023/05/05 12:12:58;;;;;;;2.88;0.90;;;33.10;25.00;;;;;;6027157;29;20060;-73
2023/05/05 12:16:12;;;;;;;3.90;0.98;;;33.40;24.60;;;;;;6028994;29;20112;-73
2023/05/05 12:19:22;;;;;;;5.70;0.90;;;33.60;24.40;;;;;;6028565;29;20025;-72
2023/05/05 12:22:33;;;;;;;8.13;0.95;;;33.80;24.10;;;;;;6028936;29;20033;-71
2023/05/05 12:25:42;;;;;;;5.03;1.20;;;33.80;23.80;;;;;;6027994;29;20021;-73
2023/05/05 12:28:53;;;;;;;2.75;1.30;;;33.90;23.60;;;;;;6027158;29;20092;-72
2023/05/05 12:32:04;;;;;;;1.85;0.82;;;34.20;23.50;;;;;;6028490;29;20033;-72
2023/05/05 12:35:16;;;;;;;1.90;0.90;;;34.50;23.00;;;;;;6028787;29;20117;-73
2023/05/05 12:38:28;;;;;;;2.13;0.90;;;34.50;22.90;;;;;;6028175;29;20482;-72
2023/05/05 12:41:34;;;;;;;3.53;1.05;;;34.80;22.80;;;;;;6028716;29;20025;-71
2023/05/05 12:44:43;;;;;;;1.85;0.95;;;34.90;22.60;;;;;;6028955;29;20037;-74
2023/05/05 12:47:56;;;;;;;2.47;1.00;;;35.10;22.30;;;;;;6042472;29;20037;-71
2023/05/05 12:51:21;;;;;;;1.05;0.80;;;35.40;22.00;;;;;;6041839;29;20178;-72
2023/05/05 12:54:32;;;;;;;4.97;1.05;;;35.40;21.90;;;;;;6028288;29;20105;-71
2023/05/05 12:58:00;;;;;;;3.97;0.85;;;35.70;21.70;;;;;;6028252;29;20137;-72
2023/05/05 13:01:12;;;;;;;7.13;1.10;;;36.10;21.40;;;;;;6027079;29;20060;-72
2023/05/05 13:04:29;;;;;;;7.53;0.82;;;36.70;20.90;;;;;;6028099;29;20052;-73
2023/05/05 13:07:37;;;;;;;1.42;0.90;;;37.50;20.30;;;;;;6028331;29;20060;-72
2023/05/05 13:11:04;;;;;;;2.47;0.80;;;37.90;19.80;;;;;;6028238;29;20045;-72
2023/05/05 13:14:11;;;;;;;1.00;0.80;;;37.90;19.50;;;;;;6027275;29;20101;-71
2023/05/05 13:17:19;;;;;;;5.00;1.05;;;38.20;19.40;;;;;;6028133;29;20033;-73
2023/05/05 13:20:28;;;;;;;3.78;1.08;;;38.40;19.20;;;;;;6026863;29;20033;-72
2023/05/05 13:23:37;;;;;;;2.63;1.30;;;38.40;18.90;;;;;;6027992;29;20044;-73
2023/05/05 13:26:41;;;;;;;4.53;0.98;;;38.50;18.80;;;;;;6027744;29;20124;-72
2023/05/05 13:29:47;;;;;;;;;;;38.80;18.50;;;;;;6026526;29;20117;-71
2023/05/05 13:32:57;;;;;;;2.97;1.35;;;39.20;18.30;;;;;;6027221;29;20015;-72
2023/05/05 13:36:10;;;;;;;3.78;1.05;;;39.70;18.10;;;;;;6027878;29;20038;-71
2023/05/05 13:39:17;;;;;;;1.55;0.98;;;40.00;17.90;;;;;;6027809;29;20106;-74
2023/05/05 13:42:26;;;;;;;2.58;0.90;;;40.00;17.70;;;;;;6025821;29;20033;-72
2023/05/05 13:45:33;;;;;;;2.13;1.00;;;40.10;17.60;;;;;;6025995;29;20101;-72
2023/05/05 13:48:43;;;;;;;4.95;1.05;;;39.70;17.80;;;;;;6027354;29;20085;-73
2023/05/05 13:51:59;;;;;;;4.63;1.45;;;39.20;17.90;;;;;;6028235;29;20033;-72
2023/05/05 13:55:05;;;;;;;2.15;0.90;;;39.00;18.00;;;;;;6033259;29;20033;-74
2023/05/05 13:58:18;;;;;;;0.85;0.75;;;38.80;18.10;;;;;;6003441;29;20054;-74
2023/05/05 14:01:26;;;;;;;4.28;0.82;;;39.00;18.10;;;;;;6002743;29;20397;-74
2023/05/05 14:04:32;;;;;;;5.78;0.70;;;39.40;18.00;;;;;;6021126;29;20051;-73
2023/05/05 14:07:38;;;;;;;0.80;0.80;;;39.90;17.60;;;;;;6025439;29;20051;-72
2023/05/05 14:10:50;;;;;;;1.42;0.73;;;40.10;17.40;;;;;;6025587;29;20037;-73
2023/05/05 14:14:00;;;;;;;1.30;0.85;;;40.10;17.50;;;;;;6026812;29;20056;-71
2023/05/05 14:17:08;;;;;;;1.77;0.60;;;40.10;17.30;;;;;;6026875;29;20200;-73
2023/05/05 14:20:19;;;;;;;2.42;0.90;;;40.10;17.40;;;;;;6002980;29;20030;-73
2023/05/05 14:23:27;;;;;;;1.58;0.98;;;40.00;17.40;;;;;;6005518;29;20065;-73
2023/05/05 14:26:35;;;;;;;1.92;0.80;;;39.40;17.70;;;;;;6002685;29;20037;-73
2023/05/05 14:30:00;;;;;;;4.22;1.10;;;39.00;18.00;;;;;;6026851;29;20406;-74
2023/05/05 14:33:14;;;;;;;9.02;1.10;;;39.00;18.50;;;;;;6027505;29;20109;-73
2023/05/05 14:36:22;;;;;;;3.50;1.15;;;39.00;17.90;;;;;;6025599;29;20040;-72
2023/05/05 14:39:32;;;;;;;3.97;1.88;;;38.90;17.90;;;;;;6027461;29;20068;-72
2023/05/05 14:42:45;;;;;;;2.72;1.05;;;38.20;18.40;;;;;;6027331;29;20041;-72
2023/05/05 14:45:53;;;;;;;1.20;0.70;;;37.40;19.00;;;;;;6031577;29;20044;-72
2023/05/05 14:49:02;;;;;;;3.60;0.80;;;36.60;19.60;;;;;;6031118;29;20037;-72
2023/05/05 14:52:12;;;;;;;2.92;1.10;;;36.00;20.10;;;;;;6031123;29;20042;-73
2023/05/05 14:55:21;;;;;;;5.80;0.70;;;35.30;20.50;;;;;;6031608;29;20117;-73
2023/05/05 14:58:29;;;;;;;1.50;0.90;;;34.80;21.00;;;;;;6030797;29;20029;-72
2023/05/05 15:01:35;;;;;;;4.13;1.05;;;34.30;21.50;;;;;;6029460;29;20504;-71
2023/05/05 15:04:41;;;;;;;1.48;0.90;;;33.70;21.90;;;;;;6030676;29;20041;-74
2023/05/05 15:07:51;;;;;;;0.70;0.70;;;33.30;22.30;;;;;;6030998;29;20043;-71
2023/05/05 15:10:57;;;;;;;1.77;0.80;;;32.90;22.70;;;;;;6014259;29;20401;-72
2023/05/05 15:14:03;;;;;;;7.68;0.90;;;32.60;23.00;;;;;;6030727;29;20029;-71
2023/05/05 15:17:14;;;;;;;1.52;0.80;;;32.40;23.30;;;;;;6031312;29;20038;-72
2023/05/05 15:20:23;;;;;;;0.95;0.80;;;32.20;23.40;;;;;;6031146;29;20126;-72
2023/05/05 15:23:32;;;;;;;3.38;0.80;;;32.00;23.60;;;;;;6031244;29;20108;-71
2023/05/05 15:26:37;;;;;;;2.03;0.77;;;31.90;23.60;;;;;;6030509;29;20072;-72
2023/05/05 15:29:45;;;;;;;1.35;0.88;;;31.80;23.70;;;;;;6030222;29;20049;-72
2023/05/05 15:32:55;;;;;;;6.00;1.10;;;32.00;23.50;;;;;;6020438;29;20041;-72
2023/05/05 15:36:07;;;;;;;1.58;0.90;;;32.60;23.00;;;;;;6006550;29;20037;-74
2023/05/05 15:39:17;;;;;;;5.65;1.10;;;32.80;22.60;;;;;;6007351;29;20114;-73
2023/05/05 15:42:25;;;;;;;4.85;0.93;;;33.00;22.40;;;;;;6021927;29;20053;-71
2023/05/05 15:45:33;;;;;;;2.55;0.82;;;33.00;22.50;;;;;;6005913;29;20069;-72
2023/05/05 15:48:41;;;;;;;3.63;0.93;;;32.70;22.70;;;;;;6020553;29;20046;-72
2023/05/05 15:51:53;;;;;;;2.05;0.82;;;32.50;22.80;;;;;;6019512;29;20076;-74
2023/05/05 15:55:00;;;;;;;2.42;0.88;;;32.40;22.90;;;;;;6041568;29;20033;-71
2023/05/05 15:58:08;;;;;;;1.08;0.93;;;32.80;22.70;;;;;;6027775;29;20069;-73
2023/05/05 16:01:17;;;;;;;;;;;33.10;22.60;;;;;;6027823;29;20062;-72
2023/05/05 16:04:29;;;;;;;2.47;0.70;;;33.40;22.30;;;;;;6028621;29;19924;-74
2023/05/05 16:07:33;;;;;;;4.18;1.85;;;33.70;21.90;;;;;;6029048;29;20037;-72
2023/05/05 16:10:39;;;;;;;1.42;0.80;;;33.40;22.10;;;;;;6019865;29;20042;-72
2023/05/05 16:13:50;;;;;;;4.65;1.35;;;32.90;22.60;;;;;;6006792;29;20120;-72
2023/05/05 16:16:59;;;;;;;2.75;0.90;;;32.30;23.00;;;;;;6004938;29;20089;-73
2023/05/05 16:20:11;;;;;;;14.18;1.08;;;32.40;23.10;;;;;;6006051;29;20034;-73
2023/05/05 16:23:23;;;;;;;1.08;0.70;;;33.20;22.60;;;;;;6022256;29;20030;-73
2023/05/05 16:26:29;;;;;;;1.85;0.93;;;33.90;21.90;;;;;;6042553;29;20098;-71
2023/05/05 16:29:37;;;;;;;;;;;34.40;21.60;;;;;;6027478;29;20122;-72
2023/05/05 16:32:46;;;;;;;2.17;1.38;;;34.40;21.50;;;;;;6011993;29;19939;-71
2023/05/05 16:35:58;;;;;;;1.55;0.93;;;33.80;21.80;;;;;;6027160;29;20052;-72
2023/05/05 16:39:09;;;;;;;3.22;1.17;;;33.20;22.30;;;;;;6026580;29;20073;-73
2023/05/05 16:42:18;;;;;;;2.10;1.20;;;32.70;22.90;;;;;;6026879;29;20030;-71
2023/05/05 16:45:31;;;;;;;2.67;1.08;;;32.10;23.30;;;;;;6028052;29;20052;-73
2023/05/05 16:48:44;;;;;;;2.08;0.77;;;31.70;23.70;;;;;;6027663;29;20130;-72